< < Back
Terminal Aerodrome Forecast


Current Version              Previous Versions:   1  2  3  4  5  6  7  8  9  

Terminal Aerodrome Forecast

826
FTUS42 KTAE 161100
TAFABY
TAF
KABY 161120Z 1612/1712 00000KT P6SM OVC005
     FM161500 30003KT P6SM BKN015
     FM161700 31007KT P6SM VCTS SCT030CB BKN100
      TEMPO 1620/1624 3SM TSRA OVC025CB
     FM170300 34003KT P6SM SCT100 BKN250
     FM170700 02003KT P6SM SCT250=



Latest METAR

626
SAUS70 KWBC 161700 RRA
MTRABY
METAR KABY 161653Z 36004KT 10SM BKN025 30/23 A3006 RMK AO2 SLP176
T03000228


USA.gov is the U.S. government's official web portal to all federal, state and local government web resources and services.